Sea-land Endurance — V7HX3 — position and weather

sailwx.info

Track history (hours):
 
Tides and Currents Weather Stations Pressure Air Temp Water Temp Dewpoint Dewpoint Depression Visibility Wind Speed Wind Dir Waves Ship Positions

Sea-land Endurance

Last reported at 2018-Jun-19 05:14 UTC. Time now 2018-Jun-22 22:58 UTC.
Position N 37°10' W 001°09'.

Type: Cargo ship. MMSI: 538002326.

Date/timePositionNaut miles runAvg speedWind from/ knotsBaromVisibWave heightAir tempDewpointWater temp
2018-Jun-19 05:14N 37°10' W 001°09'312.9
2018-Jun-19 04:58N 37°12' W 001°06'612.9
2018-Jun-19 04:30N 37°16' W 001°00'612.8
2018-Jun-19 04:00N 37°20' W 000°54'612.9
2018-Jun-19 03:30N 37°24' W 000°48'713.2
2018-Jun-19 03:00N 37°29' W 000°43'612.9
2018-Jun-19 02:30N 37°33' W 000°36'612.7
2018-Jun-19 02:00N 37°38' W 000°31'713.0
2018-Jun-19 01:30N 37°43' W 000°26'712.9
2018-Jun-19 00:59N 37°49' W 000°22'712.8
2018-Jun-19 00:28N 37°54' W 000°17'612.9
2018-Jun-19 00:01N 37°59' W 000°13'712.9
2018-Jun-18 23:30N 38°04' W 000°08'612.7
2018-Jun-18 23:00N 38°10' W 000°04'612.7
2018-Jun-18 22:30N 38°15' E 000°00'1212.7
2018-Jun-18 21:35N 38°25' E 000°08'112.7
2018-Jun-18 21:30N 38°26' E 000°09'612.6
2018-Jun-18 21:00N 38°31' E 000°14'612.8
2018-Jun-18 20:30N 38°37' E 000°18'612.9
2018-Jun-18 20:00N 38°42' E 000°22'612.4
2018-Jun-18 19:30N 38°48' E 000°24'612.3
2018-Jun-18 19:00N 38°54' E 000°25'4212.0
2018-Jun-18 15:27N 39°37' E 000°23'1412.4
2018-Jun-18 14:18N 39°49' E 000°13'812.6
2018-Jun-18 13:40N 39°55' E 000°07'  
2018-Jun-13 12:27N 40°44' E 001°48'511.5
2018-Jun-13 11:59N 40°47' E 001°54'611.6
2018-Jun-13 11:30N 40°51' E 001°59'611.8
2018-Jun-13 10:59N 40°55' E 002°06'611.9
2018-Jun-13 10:27N 40°59' E 002°12'711.8
2018-Jun-13 09:51N 41°03' E 002°20'411.6
2018-Jun-13 09:30N 41°05' E 002°24'711.9
2018-Jun-13 08:55N 41°10' E 002°31'511.8
2018-Jun-13 08:30N 41°13' E 002°35'811.8
2018-Jun-13 07:52N 41°18' E 002°43'13011.5
2018-Jun-12 20:35N 43°18' E 003°50'1 9.2
2018-Jun-12 20:29N 43°19' E 003°49'4 8.9
2018-Jun-12 20:01N 43°23' E 003°46'2 3.3
2018-Jun-12 19:30N 43°24' E 003°45'0 0.3
2018-Jun-12 19:00N 43°24' E 003°45'0 0.0
2018-Jun-11 11:13N 43°24' E 003°45'0 0.7
2018-Jun-11 11:00N 43°24' E 003°45'2 3.3
2018-Jun-11 10:30N 43°22' E 003°45'0 0.8
2018-Jun-11 10:00N 43°22' E 003°45'0 0.1
2018-Jun-11 09:28N 43°22' E 003°45'0 0.0
2018-Jun-11 08:58N 43°22' E 003°45'0 0.0
2018-Jun-11 08:28N 43°22' E 003°45'0 0.0
2018-Jun-11 07:58N 43°22' E 003°45'0 0.0
2018-Jun-11 07:28N 43°22' E 003°45'0 0.0
2018-Jun-11 06:52N 43°22' E 003°45'0 0.0
2018-Jun-11 06:28N 43°22' E 003°45'0 0.0
2018-Jun-11 05:58N 43°22' E 003°45'0 0.0
2018-Jun-11 05:28N 43°22' E 003°45'0 0.0
2018-Jun-11 04:58N 43°22' E 003°45'0 0.0
2018-Jun-11 04:28N 43°22' E 003°45'0 0.0
2018-Jun-11 03:58N 43°22' E 003°45'0 0.0
2018-Jun-11 03:28N 43°22' E 003°45'0 0.0
2018-Jun-11 02:58N 43°22' E 003°45'0 0.3
2018-Jun-11 02:30N 43°22' E 003°45'1 1.1
2018-Jun-11 02:00N 43°22' E 003°45'3 6.3
2018-Jun-11 01:30N 43°20' E 003°49'5 9.7
2018-Jun-11 01:00N 43°16' E 003°51'5 9.2
2018-Jun-11 00:30N 43°11' E 003°53'3 6.8
2018-Jun-11 00:00N 43°08' E 003°54'3211.5
2018-Jun-10 21:14N 42°36' E 003°53'612.9
2018-Jun-10 20:47N 42°31' E 003°51'812.5
2018-Jun-10 20:09N 42°23' E 003°48'212.3
2018-Jun-10 19:57N 42°21' E 003°47'29812.7
2018-Jun-09 20:25N 38°12' E 000°12'513.4
2018-Jun-09 20:00N 38°07' E 000°08'713.3
2018-Jun-09 19:30N 38°01' E 000°05'713.4
2018-Jun-09 19:00N 37°55' E 000°00'713.3
2018-Jun-09 18:30N 37°49' W 000°04'713.3
2018-Jun-09 18:00N 37°43' W 000°07'713.2
2018-Jun-09 17:30N 37°38' W 000°11'713.2
2018-Jun-09 17:00N 37°32' W 000°16'712.9
2018-Jun-09 16:29N 37°27' W 000°21'612.9
2018-Jun-09 16:00N 37°23' W 000°27'1312.9
2018-Jun-09 14:59N 37°14' W 000°40'713.5
2018-Jun-09 14:29N 37°10' W 000°46'713.6
2018-Jun-09 14:00N 37°06' W 000°53'1113.8
2018-Jun-09 13:13N 36°59' W 001°03'413.7
2018-Jun-09 12:54N 36°56' W 001°07'513.6
2018-Jun-09 12:30N 36°53' W 001°13'713.3
2018-Jun-09 11:59N 36°48' W 001°19'  
Track history (hours):
 
Tides and Currents Weather Stations Pressure Air Temp Water Temp Dewpoint Dewpoint Depression Visibility Wind Speed Wind Dir Waves Ship Positions

Sea-land Endurance

Last reported at 2018-Jun-19 05:14 UTC. Time now 2018-Jun-22 22:58 UTC.
Position N 37°10' W 001°09'.

Type: Cargo ship. MMSI: 538002326.

Date/timePositionNaut miles runAvg speedWind from/ knotsBaromVisibWave heightAir tempDewpointWater temp
2018-Jun-19 05:14N 37°10' W 001°09'312.9
2018-Jun-19 04:58N 37°12' W 001°06'612.9
2018-Jun-19 04:30N 37°16' W 001°00'612.8
2018-Jun-19 04:00N 37°20' W 000°54'612.9
2018-Jun-19 03:30N 37°24' W 000°48'713.2
2018-Jun-19 03:00N 37°29' W 000°43'612.9
2018-Jun-19 02:30N 37°33' W 000°36'612.7
2018-Jun-19 02:00N 37°38' W 000°31'713.0
2018-Jun-19 01:30N 37°43' W 000°26'712.9
2018-Jun-19 00:59N 37°49' W 000°22'712.8
2018-Jun-19 00:28N 37°54' W 000°17'612.9
2018-Jun-19 00:01N 37°59' W 000°13'712.9
2018-Jun-18 23:30N 38°04' W 000°08'612.7
2018-Jun-18 23:00N 38°10' W 000°04'612.7
2018-Jun-18 22:30N 38°15' E 000°00'1212.7
2018-Jun-18 21:35N 38°25' E 000°08'112.7
2018-Jun-18 21:30N 38°26' E 000°09'612.6
2018-Jun-18 21:00N 38°31' E 000°14'612.8
2018-Jun-18 20:30N 38°37' E 000°18'612.9
2018-Jun-18 20:00N 38°42' E 000°22'612.4
2018-Jun-18 19:30N 38°48' E 000°24'612.3
2018-Jun-18 19:00N 38°54' E 000°25'4212.0
2018-Jun-18 15:27N 39°37' E 000°23'1412.4
2018-Jun-18 14:18N 39°49' E 000°13'812.6
2018-Jun-18 13:40N 39°55' E 000°07'  
2018-Jun-13 12:27N 40°44' E 001°48'511.5
2018-Jun-13 11:59N 40°47' E 001°54'611.6
2018-Jun-13 11:30N 40°51' E 001°59'611.8
2018-Jun-13 10:59N 40°55' E 002°06'611.9
2018-Jun-13 10:27N 40°59' E 002°12'711.8
2018-Jun-13 09:51N 41°03' E 002°20'411.6
2018-Jun-13 09:30N 41°05' E 002°24'711.9
2018-Jun-13 08:55N 41°10' E 002°31'511.8
2018-Jun-13 08:30N 41°13' E 002°35'811.8
2018-Jun-13 07:52N 41°18' E 002°43'13011.5
2018-Jun-12 20:35N 43°18' E 003°50'1 9.2
2018-Jun-12 20:29N 43°19' E 003°49'4 8.9
2018-Jun-12 20:01N 43°23' E 003°46'2 3.3
2018-Jun-12 19:30N 43°24' E 003°45'0 0.3
2018-Jun-12 19:00N 43°24' E 003°45'0 0.0
2018-Jun-11 11:13N 43°24' E 003°45'0 0.7
2018-Jun-11 11:00N 43°24' E 003°45'2 3.3
2018-Jun-11 10:30N 43°22' E 003°45'0 0.8
2018-Jun-11 10:00N 43°22' E 003°45'0 0.1
2018-Jun-11 09:28N 43°22' E 003°45'0 0.0
2018-Jun-11 08:58N 43°22' E 003°45'0 0.0
2018-Jun-11 08:28N 43°22' E 003°45'0 0.0
2018-Jun-11 07:58N 43°22' E 003°45'0 0.0
2018-Jun-11 07:28N 43°22' E 003°45'0 0.0
2018-Jun-11 06:52N 43°22' E 003°45'0 0.0
2018-Jun-11 06:28N 43°22' E 003°45'0 0.0
2018-Jun-11 05:58N 43°22' E 003°45'0 0.0
2018-Jun-11 05:28N 43°22' E 003°45'0 0.0
2018-Jun-11 04:58N 43°22' E 003°45'0 0.0
2018-Jun-11 04:28N 43°22' E 003°45'0 0.0
2018-Jun-11 03:58N 43°22' E 003°45'0 0.0
2018-Jun-11 03:28N 43°22' E 003°45'0 0.0
2018-Jun-11 02:58N 43°22' E 003°45'0 0.3
2018-Jun-11 02:30N 43°22' E 003°45'1 1.1
2018-Jun-11 02:00N 43°22' E 003°45'3 6.3
2018-Jun-11 01:30N 43°20' E 003°49'5 9.7
2018-Jun-11 01:00N 43°16' E 003°51'5 9.2
2018-Jun-11 00:30N 43°11' E 003°53'3 6.8
2018-Jun-11 00:00N 43°08' E 003°54'3211.5
2018-Jun-10 21:14N 42°36' E 003°53'612.9
2018-Jun-10 20:47N 42°31' E 003°51'812.5
2018-Jun-10 20:09N 42°23' E 003°48'212.3
2018-Jun-10 19:57N 42°21' E 003°47'29812.7
2018-Jun-09 20:25N 38°12' E 000°12'513.4
2018-Jun-09 20:00N 38°07' E 000°08'713.3
2018-Jun-09 19:30N 38°01' E 000°05'713.4
2018-Jun-09 19:00N 37°55' E 000°00'713.3
2018-Jun-09 18:30N 37°49' W 000°04'713.3
2018-Jun-09 18:00N 37°43' W 000°07'713.2
2018-Jun-09 17:30N 37°38' W 000°11'713.2
2018-Jun-09 17:00N 37°32' W 000°16'712.9
2018-Jun-09 16:29N 37°27' W 000°21'612.9
2018-Jun-09 16:00N 37°23' W 000°27'1312.9
2018-Jun-09 14:59N 37°14' W 000°40'713.5
2018-Jun-09 14:29N 37°10' W 000°46'713.6
2018-Jun-09 14:00N 37°06' W 000°53'1113.8
2018-Jun-09 13:13N 36°59' W 001°03'413.7
2018-Jun-09 12:54N 36°56' W 001°07'513.6
2018-Jun-09 12:30N 36°53' W 001°13'713.3
2018-Jun-09 11:59N 36°48' W 001°19'  

Dump ship's entire track history